Time,TemperatureF,DewpointF,PressureIn,WindDirection,WindDirectionDegrees,WindSpeedMPH,WindSpeedGustMPH,Humidity,HourlyPrecipIn,Conditions,Clouds,dailyrainin,SoftwareType,DateUTC
2013-02-09 00:01:00,40.0,36.0,-100.00,ENE,57,3.0,5.0,85,-99.99,,,-99.99,,2013-02-09 08:01:00,
2013-02-09 00:11:00,40.0,36.0,-100.00,NE,37,1.0,3.0,86,-99.99,,,-99.99,,2013-02-09 08:11:00,
2013-02-09 00:21:00,41.0,37.0,-100.00,NNE,30,2.0,4.0,84,-99.99,,,-99.99,,2013-02-09 08:21:00,
2013-02-09 00:31:00,41.0,36.0,-100.00,NE,52,4.0,6.0,82,-99.99,,,-99.99,,2013-02-09 08:31:00,
2013-02-09 00:41:00,40.0,36.0,-100.00,NE,50,5.0,6.0,86,-99.99,,,-99.99,,2013-02-09 08:41:00,
2013-02-09 00:52:00,40.0,36.0,-100.00,NE,49,4.0,6.0,84,-99.99,,,-99.99,,2013-02-09 08:52:00,
2013-02-09 01:02:00,40.0,36.0,-100.00,NE,49,6.0,7.0,85,-99.99,,,-99.99,,2013-02-09 09:02:00,
2013-02-09 01:11:00,39.0,35.0,-100.00,NE,50,6.0,9.0,86,-99.99,,,-99.99,,2013-02-09 09:11:00,
2013-02-09 01:21:00,40.0,36.0,-100.00,NE,47,5.0,7.0,84,-99.99,,,-99.99,,2013-02-09 09:21:00,
2013-02-09 01:31:00,41.0,36.0,-100.00,NE,47,3.0,5.0,81,-99.99,,,-99.99,,2013-02-09 09:31:00,
2013-02-09 01:41:00,41.0,35.0,-100.00,NE,43,3.0,5.0,80,-99.99,,,-99.99,,2013-02-09 09:41:00,
2013-02-09 01:51:00,40.0,35.0,-100.00,NE,46,6.0,8.0,83,-99.99,,,-99.99,,2013-02-09 09:51:00,
2013-02-09 02:01:00,39.0,35.0,-100.00,NE,49,6.0,8.0,86,-99.99,,,-99.99,,2013-02-09 10:01:00,
2013-02-09 02:11:00,40.0,36.0,-100.00,NE,49,4.0,7.0,85,-99.99,,,-99.99,,2013-02-09 10:11:00,
2013-02-09 02:21:00,41.0,36.0,-100.00,NE,49,4.0,5.0,83,-99.99,,,-99.99,,2013-02-09 10:21:00,
2013-02-09 02:31:00,40.0,35.0,-100.00,NE,48,5.0,7.0,83,-99.99,,,-99.99,,2013-02-09 10:31:00,
2013-02-09 02:41:00,39.0,35.0,-100.00,NE,48,5.0,7.0,86,-99.99,,,-99.99,,2013-02-09 10:41:00,
2013-02-09 02:51:00,40.0,36.0,-100.00,NE,46,5.0,6.0,86,-99.99,,,-99.99,,2013-02-09 10:51:00,
2013-02-09 03:01:00,40.0,36.0,-100.00,NE,45,4.0,6.0,85,-99.99,,,-99.99,,2013-02-09 11:01:00,
2013-02-09 03:11:00,40.0,36.0,-100.00,NE,49,5.0,7.0,84,-99.99,,,-99.99,,2013-02-09 11:11:00,
2013-02-09 03:21:00,39.0,35.0,-100.00,NE,49,6.0,8.0,86,-99.99,,,-99.99,,2013-02-09 11:21:00,
2013-02-09 03:31:00,39.0,35.0,-100.00,NE,47,5.0,7.0,87,-99.99,,,-99.99,,2013-02-09 11:31:00,
2013-02-09 03:41:00,38.0,34.0,-100.00,NE,44,5.0,7.0,87,-99.99,,,-99.99,,2013-02-09 11:41:00,
2013-02-09 03:52:00,38.0,34.0,-100.00,NE,52,6.0,9.0,87,-99.99,,,-99.99,,2013-02-09 11:52:00,
2013-02-09 04:02:00,38.0,34.0,-100.00,NE,52,6.0,9.0,87,-99.99,,,-99.99,,2013-02-09 12:02:00,
2013-02-09 04:11:00,38.0,34.0,-100.00,NE,53,6.0,8.0,87,-99.99,,,-99.99,,2013-02-09 12:11:00,
2013-02-09 04:21:00,39.0,35.0,-100.00,NE,50,7.0,9.0,84,-99.99,,,-99.99,,2013-02-09 12:21:00,
2013-02-09 04:32:00,38.0,33.0,-100.00,NE,52,7.0,10.0,83,-99.99,,,-99.99,,2013-02-09 12:32:00,
2013-02-09 04:42:00,38.0,34.0,-100.00,NE,45,7.0,10.0,84,-99.99,,,-99.99,,2013-02-09 12:42:00,
2013-02-09 04:52:00,38.0,33.0,-100.00,NE,50,6.0,8.0,82,-99.99,,,-99.99,,2013-02-09 12:52:00,
2013-02-09 05:02:00,39.0,34.0,-100.00,NE,45,5.0,7.0,81,-99.99,,,-99.99,,2013-02-09 13:02:00,
2013-02-09 05:11:00,39.0,33.0,-100.00,NE,47,5.0,7.0,80,-99.99,,,-99.99,,2013-02-09 13:11:00,
2013-02-09 05:21:00,38.0,33.0,-100.00,NE,45,7.0,8.0,81,-99.99,,,-99.99,,2013-02-09 13:21:00,
2013-02-09 05:31:00,38.0,33.0,-100.00,NE,48,6.0,8.0,81,-99.99,,,-99.99,,2013-02-09 13:31:00,
2013-02-09 05:42:00,37.0,33.0,-100.00,NE,50,7.0,9.0,84,-99.99,,,-99.99,,2013-02-09 13:42:00,
2013-02-09 05:51:00,38.0,34.0,-100.00,NE,48,6.0,8.0,84,-99.99,,,-99.99,,2013-02-09 13:51:00,
2013-02-09 06:01:00,37.0,33.0,-100.00,NE,50,6.0,9.0,85,-99.99,,,-99.99,,2013-02-09 14:01:00,
2013-02-09 06:11:00,38.0,34.0,-100.00,NE,46,5.0,8.0,86,-99.99,,,-99.99,,2013-02-09 14:11:00,
2013-02-09 06:21:00,38.0,34.0,-100.00,NE,50,6.0,8.0,86,-99.99,,,-99.99,,2013-02-09 14:21:00,
2013-02-09 06:31:00,37.0,33.0,-100.00,NE,50,6.0,8.0,86,-99.99,,,-99.99,,2013-02-09 14:31:00,
2013-02-09 06:41:00,38.0,34.0,-100.00,NE,49,5.0,9.0,86,-99.99,,,-99.99,,2013-02-09 14:41:00,
2013-02-09 06:52:00,38.0,34.0,-100.00,NE,47,5.0,8.0,84,-99.99,,,-99.99,,2013-02-09 14:52:00,
2013-02-09 07:01:00,40.0,35.0,-100.00,NNE,18,2.0,5.0,82,-99.99,,,-99.99,,2013-02-09 15:01:00,
2013-02-09 07:11:00,39.0,34.0,-100.00,NE,45,4.0,8.0,82,-99.99,,,-99.99,,2013-02-09 15:11:00,
2013-02-09 07:21:00,38.0,33.0,-100.00,NE,48,6.0,9.0,83,-99.99,,,-99.99,,2013-02-09 15:21:00,
2013-02-09 07:31:00,38.0,34.0,-100.00,NE,46,6.0,8.0,84,-99.99,,,-99.99,,2013-02-09 15:31:00,
2013-02-09 07:41:00,37.0,33.0,-100.00,NE,47,7.0,9.0,86,-99.99,,,-99.99,,2013-02-09 15:41:00,
2013-02-09 07:51:00,38.0,34.0,-100.00,NE,48,6.0,8.0,86,-99.99,,,-99.99,,2013-02-09 15:51:00,
2013-02-09 08:01:00,38.0,34.0,-100.00,NE,50,6.0,9.0,84,-99.99,,,-99.99,,2013-02-09 16:01:00,
2013-02-09 08:11:00,39.0,35.0,-100.00,NE,51,6.0,7.0,84,-99.99,,,-99.99,,2013-02-09 16:11:00,
2013-02-09 08:21:00,39.0,35.0,-100.00,NE,55,5.0,7.0,84,-99.99,,,-99.99,,2013-02-09 16:21:00,
2013-02-09 08:31:00,40.0,34.0,-100.00,NE,47,5.0,7.0,80,-99.99,,,-99.99,,2013-02-09 16:31:00,
2013-02-09 08:41:00,42.0,36.0,-100.00,NE,54,3.0,5.0,78,-99.99,,,-99.99,,2013-02-09 16:41:00,
2013-02-09 08:51:00,43.0,36.0,-100.00,ENE,65,3.0,4.0,75,-99.99,,,-99.99,,2013-02-09 16:51:00,
2013-02-09 09:01:00,43.0,36.0,-100.00,ENE,67,3.0,5.0,75,-99.99,,,-99.99,,2013-02-09 17:01:00,
2013-02-09 09:11:00,43.0,36.0,-100.00,NE,51,2.0,4.0,75,-99.99,,,-99.99,,2013-02-09 17:11:00,
2013-02-09 09:21:00,43.0,35.0,-100.00,ENE,74,1.0,2.0,73,-99.99,,,-99.99,,2013-02-09 17:21:00,
2013-02-09 09:31:00,44.0,36.0,-100.00,ESE,105,1.0,4.0,72,-99.99,,,-99.99,,2013-02-09 17:31:00,
2013-02-09 09:41:00,44.0,36.0,-100.00,SE,141,1.0,2.0,72,-99.99,,,-99.99,,2013-02-09 17:41:00,
2013-02-09 09:52:00,46.0,37.0,-100.00,SSE,157,1.0,3.0,70,-99.99,,,-99.99,,2013-02-09 17:52:00,
2013-02-09 10:01:00,46.0,35.0,-100.00,SSE,151,1.0,3.0,66,-99.99,,,-99.99,,2013-02-09 18:01:00,
2013-02-09 10:11:00,47.0,35.0,-100.00,ESE,120,2.0,4.0,64,-99.99,,,-99.99,,2013-02-09 18:11:00,
2013-02-09 10:23:00,47.0,35.0,-100.00,ESE,123,2.0,5.0,64,-99.99,,,-99.99,,2013-02-09 18:23:00,
2013-02-09 10:31:00,46.0,36.0,-100.00,North,349,1.0,4.0,67,-99.99,,,-99.99,,2013-02-09 18:31:00,
2013-02-09 10:41:00,47.0,37.0,-100.00,SW,215,3.0,6.0,68,-99.99,,,-99.99,,2013-02-09 18:41:00,
2013-02-09 10:51:00,46.0,37.0,-100.00,WSW,244,2.0,4.0,70,-99.99,,,-99.99,,2013-02-09 18:51:00,
2013-02-09 11:01:00,47.0,37.0,-100.00,SW,235,2.0,6.0,67,-99.99,,,-99.99,,2013-02-09 19:01:00,
2013-02-09 11:11:00,49.0,37.0,-100.00,SSW,192,3.0,8.0,64,-99.99,,,-99.99,,2013-02-09 19:11:00,
2013-02-09 11:22:00,48.0,36.0,-100.00,SSW,192,3.0,6.0,62,-99.99,,,-99.99,,2013-02-09 19:22:00,
2013-02-09 11:31:00,48.0,34.0,-100.00,WSW,251,3.0,9.0,59,-99.99,,,-99.99,,2013-02-09 19:31:00,
2013-02-09 11:41:00,48.0,33.0,-100.00,WSW,257,4.0,9.0,55,-99.99,,,-99.99,,2013-02-09 19:41:00,
2013-02-09 11:52:00,47.0,33.0,-100.00,West,272,3.0,5.0,57,-99.99,,,-99.99,,2013-02-09 19:52:00,
2013-02-09 12:01:00,47.0,32.0,-100.00,West,263,3.0,5.0,56,-99.99,,,-99.99,,2013-02-09 20:01:00,
2013-02-09 12:11:00,48.0,34.0,-100.00,SSW,209,2.0,5.0,58,-99.99,,,-99.99,,2013-02-09 20:11:00,
2013-02-09 12:21:00,48.0,34.0,-100.00,WSW,249,1.0,5.0,57,-99.99,,,-99.99,,2013-02-09 20:21:00,
2013-02-09 12:31:00,49.0,34.0,-100.00,WSW,237,3.0,6.0,56,-99.99,,,-99.99,,2013-02-09 20:31:00,
2013-02-09 12:41:00,50.0,34.0,-100.00,SW,229,3.0,5.0,55,-99.99,,,-99.99,,2013-02-09 20:41:00,
2013-02-09 12:52:00,50.0,34.0,-100.00,WSW,241,3.0,6.0,54,-99.99,,,-99.99,,2013-02-09 20:52:00,
2013-02-09 13:01:00,51.0,34.0,-100.00,SSW,195,2.0,7.0,52,-99.99,,,-99.99,,2013-02-09 21:01:00,
2013-02-09 13:11:00,50.0,33.0,-100.00,SW,235,3.0,6.0,51,-99.99,,,-99.99,,2013-02-09 21:11:00,
2013-02-09 13:21:00,50.0,34.0,-100.00,West,277,3.0,8.0,53,-99.99,,,-99.99,,2013-02-09 21:21:00,
2013-02-09 13:31:00,50.0,34.0,-100.00,West,277,3.0,8.0,53,-99.99,,,-99.99,,2013-02-09 21:31:00,
2013-02-09 13:41:00,52.0,34.0,-100.00,SSW,202,5.0,11.0,51,-99.99,,,-99.99,,2013-02-09 21:41:00,
2013-02-09 13:52:00,52.0,35.0,-100.00,SSW,204,4.0,11.0,53,-99.99,,,-99.99,,2013-02-09 21:52:00,
2013-02-09 14:01:00,52.0,35.0,-100.00,SSW,204,4.0,11.0,53,-99.99,,,-99.99,,2013-02-09 22:01:00,
2013-02-09 14:11:00,52.0,34.0,-100.00,SSW,202,5.0,14.0,51,-99.99,,,-99.99,,2013-02-09 22:11:00,
2013-02-09 14:21:00,52.0,32.0,-100.00,SW,231,7.0,12.0,46,-99.99,,,-99.99,,2013-02-09 22:21:00,
2013-02-09 14:31:00,52.0,32.0,-100.00,SW,226,7.0,15.0,47,-99.99,,,-99.99,,2013-02-09 22:31:00,
2013-02-09 14:41:00,52.0,32.0,-100.00,SW,226,7.0,12.0,46,-99.99,,,-99.99,,2013-02-09 22:41:00,
2013-02-09 14:51:00,52.0,31.0,-100.00,SW,227,8.0,14.0,45,-99.99,,,-99.99,,2013-02-09 22:51:00,
2013-02-09 15:01:00,51.0,30.0,-100.00,WSW,242,7.0,12.0,45,-99.99,,,-99.99,,2013-02-09 23:01:00,
2013-02-09 15:11:00,52.0,30.0,-100.00,SW,222,6.0,11.0,43,-99.99,,,-99.99,,2013-02-09 23:11:00,
2013-02-09 15:21:00,51.0,30.0,-100.00,SW,230,7.0,12.0,44,-99.99,,,-99.99,,2013-02-09 23:21:00,
2013-02-09 15:31:00,52.0,32.0,-100.00,SW,224,6.0,11.0,46,-99.99,,,-99.99,,2013-02-09 23:31:00,
2013-02-09 15:41:00,52.0,33.0,-100.00,WSW,246,7.0,12.0,48,-99.99,,,-99.99,,2013-02-09 23:41:00,
2013-02-09 15:52:00,51.0,31.0,-100.00,SW,233,7.0,13.0,47,-99.99,,,-99.99,,2013-02-09 23:52:00,
2013-02-09 16:02:00,51.0,33.0,-100.00,SW,226,7.0,11.0,49,-99.99,,,-99.99,,2013-02-10 00:02:00,
2013-02-09 16:11:00,51.0,33.0,-100.00,SW,235,6.0,13.0,49,-99.99,,,-99.99,,2013-02-10 00:11:00,
2013-02-09 16:21:00,51.0,33.0,-100.00,SW,234,5.0,9.0,50,-99.99,,,-99.99,,2013-02-10 00:21:00,
2013-02-09 16:31:00,51.0,35.0,-100.00,SW,218,6.0,10.0,55,-99.99,,,-99.99,,2013-02-10 00:31:00,
2013-02-09 16:41:00,51.0,34.0,-100.00,SW,224,6.0,11.0,52,-99.99,,,-99.99,,2013-02-10 00:41:00,
2013-02-09 16:51:00,51.0,34.0,-100.00,SW,235,5.0,8.0,52,-99.99,,,-99.99,,2013-02-10 00:51:00,
2013-02-09 17:01:00,51.0,34.0,-100.00,SW,223,4.0,9.0,52,-99.99,,,-99.99,,2013-02-10 01:01:00,
2013-02-09 17:11:00,50.0,34.0,-100.00,SW,223,6.0,10.0,54,-99.99,,,-99.99,,2013-02-10 01:11:00,
2013-02-09 17:21:00,50.0,35.0,-100.00,SW,215,5.0,10.0,56,-99.99,,,-99.99,,2013-02-10 01:21:00,
2013-02-09 17:31:00,50.0,34.0,-100.00,SW,223,5.0,8.0,55,-99.99,,,-99.99,,2013-02-10 01:31:00,
2013-02-09 17:41:00,50.0,34.0,-100.00,SW,223,5.0,8.0,55,-99.99,,,-99.99,,2013-02-10 01:41:00,
2013-02-09 17:51:00,49.0,35.0,-100.00,SW,220,4.0,7.0,58,-99.99,,,-99.99,,2013-02-10 01:51:00,
2013-02-09 18:01:00,48.0,34.0,-100.00,WSW,238,4.0,7.0,59,-99.99,,,-99.99,,2013-02-10 02:01:00,
2013-02-09 18:11:00,48.0,35.0,-100.00,WSW,240,1.0,4.0,60,-99.99,,,-99.99,,2013-02-10 02:11:00,
2013-02-09 18:22:00,47.0,34.0,-100.00,West,271,0.0,2.0,61,-99.99,,,-99.99,,2013-02-10 02:22:00,
2013-02-09 18:31:00,47.0,35.0,-100.00,ENE,57,2.0,6.0,64,-99.99,,,-99.99,,2013-02-10 02:31:00,
2013-02-09 18:41:00,46.0,36.0,-100.00,NE,47,4.0,6.0,67,-99.99,,,-99.99,,2013-02-10 02:41:00,
2013-02-09 18:52:00,44.0,35.0,-100.00,NE,48,6.0,8.0,70,-99.99,,,-99.99,,2013-02-10 02:52:00,
2013-02-09 19:01:00,44.0,35.0,-100.00,NE,46,5.0,8.0,71,-99.99,,,-99.99,,2013-02-10 03:01:00,
2013-02-09 19:11:00,43.0,35.0,-100.00,NE,50,7.0,8.0,74,-99.99,,,-99.99,,2013-02-10 03:11:00,
2013-02-09 19:21:00,43.0,35.0,-100.00,NE,51,6.0,8.0,73,-99.99,,,-99.99,,2013-02-10 03:21:00,
2013-02-09 19:31:00,42.0,35.0,-100.00,NE,47,6.0,8.0,76,-99.99,,,-99.99,,2013-02-10 03:31:00,
2013-02-09 19:41:00,42.0,35.0,-100.00,NE,53,7.0,10.0,75,-99.99,,,-99.99,,2013-02-10 03:41:00,
2013-02-09 19:51:00,42.0,35.0,-100.00,NE,48,6.0,9.0,75,-99.99,,,-99.99,,2013-02-10 03:51:00,
2013-02-09 20:01:00,42.0,35.0,-100.00,NE,50,7.0,9.0,76,-99.99,,,-99.99,,2013-02-10 04:01:00,
2013-02-09 20:11:00,42.0,35.0,-100.00,NE,48,6.0,8.0,76,-99.99,,,-99.99,,2013-02-10 04:11:00,
2013-02-09 20:21:00,41.0,35.0,-100.00,NE,48,7.0,9.0,79,-99.99,,,-99.99,,2013-02-10 04:21:00,
2013-02-09 20:31:00,41.0,35.0,-100.00,NE,50,6.0,8.0,79,-99.99,,,-99.99,,2013-02-10 04:31:00,
2013-02-09 20:41:00,41.0,35.0,-100.00,NE,51,7.0,10.0,80,-99.99,,,-99.99,,2013-02-10 04:41:00,
2013-02-09 20:51:00,41.0,35.0,-100.00,NE,48,6.0,8.0,79,-99.99,,,-99.99,,2013-02-10 04:51:00,
2013-02-09 21:01:00,41.0,35.0,-100.00,NE,52,7.0,9.0,80,-99.99,,,-99.99,,2013-02-10 05:01:00,
2013-02-09 21:11:00,41.0,36.0,-100.00,NE,52,7.0,8.0,81,-99.99,,,-99.99,,2013-02-10 05:11:00,
2013-02-09 21:22:00,41.0,35.0,-100.00,NE,51,6.0,9.0,80,-99.99,,,-99.99,,2013-02-10 05:22:00,
2013-02-09 21:31:00,41.0,36.0,-100.00,NE,52,7.0,8.0,82,-99.99,,,-99.99,,2013-02-10 05:31:00,
2013-02-09 21:41:00,42.0,37.0,-100.00,NE,49,6.0,8.0,81,-99.99,,,-99.99,,2013-02-10 05:41:00,
2013-02-09 21:52:00,41.0,36.0,-100.00,NE,52,6.0,8.0,81,-99.99,,,-99.99,,2013-02-10 05:52:00,
2013-02-09 22:01:00,40.0,35.0,-100.00,NE,50,7.0,8.0,83,-99.99,,,-99.99,,2013-02-10 06:01:00,
2013-02-09 22:11:00,40.0,35.0,-100.00,NE,54,7.0,9.0,83,-99.99,,,-99.99,,2013-02-10 06:11:00,
2013-02-09 22:21:00,40.0,36.0,-100.00,NE,52,7.0,9.0,84,-99.99,,,-99.99,,2013-02-10 06:21:00,
2013-02-09 22:32:00,41.0,36.0,-100.00,NE,45,7.0,9.0,83,-99.99,,,-99.99,,2013-02-10 06:32:00,
2013-02-09 22:42:00,41.0,36.0,-100.00,NE,49,6.0,9.0,82,-99.99,,,-99.99,,2013-02-10 06:42:00,
2013-02-09 22:51:00,41.0,36.0,-100.00,NE,48,6.0,9.0,83,-99.99,,,-99.99,,2013-02-10 06:51:00,
2013-02-09 23:01:00,41.0,36.0,-100.00,NE,51,7.0,9.0,83,-99.99,,,-99.99,,2013-02-10 07:01:00,
2013-02-09 23:11:00,41.0,36.0,-100.00,NE,50,7.0,8.0,83,-99.99,,,-99.99,,2013-02-10 07:11:00,
2013-02-09 23:21:00,41.0,36.0,-100.00,NE,50,7.0,8.0,83,-99.99,,,-99.99,,2013-02-10 07:21:00,
2013-02-09 23:31:00,40.0,35.0,-100.00,NE,48,7.0,9.0,83,-99.99,,,-99.99,,2013-02-10 07:31:00,
2013-02-09 23:41:00,40.0,35.0,-100.00,NE,51,7.0,9.0,83,-99.99,,,-99.99,,2013-02-10 07:41:00,
2013-02-09 23:51:00,40.0,35.0,-100.00,NE,48,6.0,9.0,83,-99.99,,,-99.99,,2013-02-10 07:51:00,